Terminal Aerodrome Forecast
Issued by NWS Tampa Bay Area, FL

Home | Current Version | Previous Version | Text Only | Print | Product List | Glossary On
Versions: 1 2 3 4 5 6 7 8 9 10 11 12 13 14 15 16
000
FTUS42 KTBW 300500
TAFSRQ
TAF
KSRQ 300540Z 3006/3106 27008KT P6SM VCSH SCT020 SCT250
      TEMPO 3006/3010 BKN020
     FM301000 31005KT P6SM FEW020 SCT250
     FM301400 30005KT P6SM SCT025 SCT250
     FM301600 28007KT P6SM SCT035 SCT250
     FM301800 28010KT P6SM SCT040 SCT250
     FM302300 31006KT P6SM FEW040 SCT250
     FM310300 VRB03KT P6SM SCT250=

USA.gov is the U.S. government's official web portal to all federal, state and local government web resources and services.